createdAt,value
2023-01-13T00:01:21.931Z,8.94
2023-01-13T00:03:49.306Z,8.90
2023-01-13T00:06:15.769Z,8.88
2023-01-13T00:08:42.182Z,8.90
2023-01-13T00:11:08.604Z,8.90
2023-01-13T00:13:35.036Z,8.90
2023-01-13T00:16:01.501Z,8.88
2023-01-13T00:18:27.951Z,8.87
2023-01-13T00:20:54.353Z,8.89
2023-01-13T00:23:20.698Z,8.91
2023-01-13T00:25:47.064Z,8.91
2023-01-13T00:28:13.417Z,8.89
2023-01-13T00:30:39.806Z,8.91
2023-01-13T00:33:06.194Z,8.93
2023-01-13T00:35:32.660Z,8.85
2023-01-13T00:37:59.200Z,8.88
2023-01-13T00:40:25.567Z,8.87
2023-01-13T00:42:51.894Z,8.85
2023-01-13T00:45:18.335Z,8.86
2023-01-13T00:47:44.788Z,8.81
2023-01-13T00:50:11.242Z,8.83
2023-01-13T00:52:37.697Z,8.83
2023-01-13T00:55:04.070Z,8.67
2023-01-13T00:57:30.469Z,8.70
2023-01-13T00:59:56.861Z,8.75
2023-01-13T01:02:23.335Z,8.76
2023-01-13T01:04:49.838Z,8.81
2023-01-13T01:07:16.240Z,8.82
2023-01-13T01:09:42.604Z,8.83
2023-01-13T01:12:09.015Z,8.83
2023-01-13T01:14:35.534Z,8.82
2023-01-13T01:17:01.880Z,8.81
2023-01-13T01:19:28.265Z,8.77
2023-01-13T01:21:54.593Z,8.75
2023-01-13T01:24:20.952Z,8.73
2023-01-13T01:26:47.333Z,8.74
2023-01-13T01:29:16.193Z,8.74
2023-01-13T01:31:42.695Z,8.71
2023-01-13T01:34:09.096Z,8.73
2023-01-13T01:36:35.490Z,8.65
2023-01-13T01:39:01.836Z,8.70
2023-01-13T01:41:28.187Z,8.67
2023-01-13T01:43:54.723Z,8.70
2023-01-13T01:46:21.188Z,8.72
2023-01-13T01:48:47.783Z,8.73
2023-01-13T01:51:14.164Z,8.69
2023-01-13T01:53:40.485Z,8.73
2023-01-13T01:56:06.886Z,8.80
2023-01-13T01:58:33.198Z,8.84
2023-01-13T02:00:59.658Z,8.84
2023-01-13T02:03:26.098Z,8.89
2023-01-13T02:05:52.449Z,8.92
2023-01-13T02:08:18.792Z,8.89
2023-01-13T02:10:45.156Z,8.85
2023-01-13T02:13:11.485Z,8.75
2023-01-13T02:15:37.820Z,8.77
2023-01-13T02:18:04.190Z,8.77
2023-01-13T02:20:30.542Z,8.75
2023-01-13T02:22:56.872Z,8.72
2023-01-13T02:25:23.202Z,8.70
2023-01-13T02:27:49.660Z,8.62
2023-01-13T02:30:16.171Z,8.27
2023-01-13T02:32:43.666Z,8.42
2023-01-13T02:35:10.017Z,8.49
2023-01-13T02:37:36.352Z,8.51
2023-01-13T02:40:02.904Z,8.55
2023-01-13T02:42:29.323Z,8.57
2023-01-13T02:44:55.745Z,8.59
2023-01-13T02:47:22.122Z,8.62
2023-01-13T02:49:48.497Z,8.61
2023-01-13T02:52:14.834Z,8.59
2023-01-13T02:54:41.261Z,8.60
2023-01-13T02:57:07.695Z,8.60
2023-01-13T02:59:34.093Z,8.61
2023-01-13T03:02:00.633Z,8.62
2023-01-13T03:04:27.092Z,8.63
2023-01-13T03:06:53.476Z,8.62
2023-01-13T03:09:20.077Z,8.65
2023-01-13T03:11:46.467Z,8.68
2023-01-13T03:14:12.848Z,8.69
2023-01-13T03:16:39.378Z,8.68
2023-01-13T03:19:05.760Z,8.72
2023-01-13T03:21:32.158Z,8.74
2023-01-13T03:23:58.549Z,8.71
2023-01-13T03:26:24.933Z,8.71
2023-01-13T03:28:51.344Z,8.74
2023-01-13T03:31:17.732Z,8.76
2023-01-13T03:33:44.111Z,8.72
2023-01-13T03:36:10.862Z,8.77
2023-01-13T03:38:37.412Z,8.84
2023-01-13T03:41:03.835Z,8.89
2023-01-13T03:43:30.273Z,8.93
2023-01-13T03:45:56.727Z,8.95
2023-01-13T03:48:23.156Z,8.99
2023-01-13T03:50:49.570Z,9.01
2023-01-13T03:53:15.926Z,9.02
2023-01-13T03:55:42.328Z,8.84
2023-01-13T03:58:08.723Z,8.78
2023-01-13T04:00:35.134Z,8.88
2023-01-13T04:03:01.568Z,8.92
2023-01-13T04:05:28.058Z,8.99
2023-01-13T04:07:54.596Z,9.04
2023-01-13T04:10:21.222Z,9.04
2023-01-13T04:12:47.593Z,9.05
2023-01-13T04:15:14.031Z,9.07
2023-01-13T04:17:40.465Z,9.11
2023-01-13T04:20:06.871Z,9.09
2023-01-13T04:22:33.262Z,9.14
2023-01-13T04:24:59.768Z,9.19
2023-01-13T04:27:26.167Z,9.24
2023-01-13T04:29:52.590Z,9.25
2023-01-13T04:32:18.962Z,9.28
2023-01-13T04:34:45.359Z,9.16
2023-01-13T04:37:13.339Z,8.83
2023-01-13T04:39:39.815Z,8.95
2023-01-13T04:42:06.175Z,9.00
2023-01-13T04:44:32.537Z,9.04
2023-01-13T04:46:58.900Z,9.05
2023-01-13T04:49:25.259Z,9.03
2023-01-13T04:51:51.850Z,8.99
2023-01-13T04:54:19.672Z,9.00
2023-01-13T04:56:46.077Z,9.02
2023-01-13T04:59:12.458Z,9.00
2023-01-13T05:01:38.889Z,9.02
2023-01-13T05:04:05.317Z,8.82
2023-01-13T05:06:31.702Z,8.90
2023-01-13T05:08:58.235Z,8.96
2023-01-13T05:11:24.605Z,8.97
2023-01-13T05:13:50.958Z,9.00
2023-01-13T05:16:17.338Z,9.01
2023-01-13T05:18:43.766Z,9.06
2023-01-13T05:21:10.129Z,9.07
2023-01-13T05:23:36.483Z,9.09
2023-01-13T05:26:02.830Z,9.07
2023-01-13T05:28:29.294Z,9.08
2023-01-13T05:30:55.751Z,9.07
2023-01-13T05:33:22.133Z,9.08
2023-01-13T05:35:48.527Z,9.10
2023-01-13T05:38:16.516Z,9.14
2023-01-13T05:40:43.009Z,9.17
2023-01-13T05:43:09.358Z,9.21
2023-01-13T05:45:35.821Z,9.20
2023-01-13T05:48:02.234Z,9.18
2023-01-13T05:50:28.566Z,9.21
2023-01-13T05:52:55.104Z,9.18
2023-01-13T05:55:21.466Z,9.16
2023-01-13T05:57:54.107Z,9.17
2023-01-13T06:00:26.483Z,9.10
2023-01-13T06:02:52.929Z,9.16
2023-01-13T06:05:19.283Z,9.18
2023-01-13T06:07:45.678Z,9.20
2023-01-13T06:10:12.062Z,9.17
2023-01-13T06:12:38.433Z,9.16
2023-01-13T06:15:04.814Z,9.14
2023-01-13T06:17:31.217Z,9.14
2023-01-13T06:19:57.588Z,9.09
2023-01-13T06:22:23.962Z,9.06
2023-01-13T06:24:50.499Z,9.07
2023-01-13T06:27:16.888Z,9.04
2023-01-13T06:29:43.265Z,9.06
2023-01-13T06:32:09.604Z,9.05
2023-01-13T06:34:35.996Z,9.02
2023-01-13T06:37:02.338Z,9.00
2023-01-13T06:39:28.781Z,8.96
2023-01-13T06:41:55.154Z,8.95
2023-01-13T06:44:21.588Z,8.94
2023-01-13T06:46:48.082Z,8.93
2023-01-13T06:49:14.534Z,8.87
2023-01-13T06:51:41.036Z,8.88
2023-01-13T06:54:07.409Z,8.90
2023-01-13T06:56:33.749Z,8.89
2023-01-13T06:59:00.140Z,8.87
2023-01-13T07:01:28.939Z,8.87
2023-01-13T07:03:55.426Z,8.88
2023-01-13T07:06:21.824Z,8.89
2023-01-13T07:08:48.181Z,8.88
2023-01-13T07:11:14.592Z,8.89
2023-01-13T07:13:40.948Z,8.88
2023-01-13T07:16:07.427Z,8.81
2023-01-13T07:18:33.799Z,8.82
2023-01-13T07:21:00.220Z,8.80
2023-01-13T07:23:26.636Z,8.62
2023-01-13T07:25:55.778Z,8.83
2023-01-13T07:28:22.172Z,8.77
2023-01-13T07:30:48.547Z,8.93
2023-01-13T07:33:15.002Z,8.76
2023-01-13T07:35:41.378Z,8.76
2023-01-13T07:38:07.734Z,8.73
2023-01-13T07:40:34.122Z,8.87
2023-01-13T07:43:00.520Z,8.89
2023-01-13T07:45:26.900Z,8.99
2023-01-13T07:47:53.256Z,8.80
2023-01-13T07:50:19.607Z,8.78
2023-01-13T07:52:45.934Z,8.71
2023-01-13T07:55:12.375Z,8.76
2023-01-13T07:57:38.812Z,8.78
2023-01-13T08:00:05.210Z,8.64
2023-01-13T08:02:33.343Z,8.53
2023-01-13T08:05:05.536Z,8.69
2023-01-13T08:07:32.010Z,8.72
2023-01-13T08:09:58.355Z,8.74
2023-01-13T08:12:24.817Z,8.61
2023-01-13T08:14:51.188Z,8.55
2023-01-13T08:17:19.756Z,8.74
2023-01-13T08:19:46.873Z,8.88
2023-01-13T08:22:14.465Z,8.99
2023-01-13T08:24:40.897Z,9.02
2023-01-13T08:27:07.329Z,9.12
2023-01-13T08:29:33.853Z,9.09
2023-01-13T08:32:06.336Z,9.18
2023-01-13T08:34:32.841Z,9.26
2023-01-13T08:36:59.221Z,9.34
2023-01-13T08:39:25.615Z,9.37
2023-01-13T08:41:56.254Z,9.40
2023-01-13T08:44:22.716Z,9.38
2023-01-13T08:46:49.260Z,9.34
2023-01-13T08:49:18.364Z,9.41
2023-01-13T08:51:44.780Z,9.45
2023-01-13T08:54:11.240Z,9.45
2023-01-13T08:56:39.451Z,9.43
2023-01-13T08:59:19.027Z,9.33
2023-01-13T09:04:31.000Z,9.48
2023-01-13T09:09:32.719Z,9.43
2023-01-13T09:12:02.166Z,9.45
2023-01-13T09:14:28.559Z,9.50
2023-01-13T09:16:55.230Z,9.54
2023-01-13T09:19:21.677Z,9.54
2023-01-13T09:21:48.118Z,9.55
2023-01-13T09:24:18.401Z,9.45
2023-01-13T09:26:44.876Z,9.38
2023-01-13T09:29:12.681Z,9.26
2023-01-13T09:31:39.051Z,9.30
2023-01-13T09:34:08.607Z,9.40
2023-01-13T09:36:35.041Z,9.29
2023-01-13T09:39:01.451Z,9.31
2023-01-13T09:41:27.882Z,9.38
2023-01-13T09:43:54.287Z,9.47
2023-01-13T09:46:20.726Z,9.21
2023-01-13T09:48:49.892Z,9.43
2023-01-13T09:51:19.095Z,9.58
2023-01-13T09:53:45.553Z,9.69
2023-01-13T09:56:11.969Z,9.62
2023-01-13T09:58:38.394Z,9.78
2023-01-13T10:01:04.866Z,9.97
2023-01-13T10:03:31.393Z,10.00
2023-01-13T10:06:00.092Z,10.06
2023-01-13T10:08:28.648Z,10.16
2023-01-13T10:10:57.931Z,10.28
2023-01-13T10:13:24.307Z,10.33
2023-01-13T10:15:50.753Z,10.36
2023-01-13T10:18:20.181Z,10.41
2023-01-13T10:20:46.686Z,10.44
2023-01-13T10:23:13.124Z,10.45
2023-01-13T10:25:39.537Z,10.33
2023-01-13T10:28:06.140Z,10.03
2023-01-13T10:30:32.598Z,9.95
2023-01-13T10:32:59.064Z,9.91
2023-01-13T10:35:25.661Z,9.93
2023-01-13T10:37:52.030Z,9.91
2023-01-13T10:40:18.548Z,9.98
2023-01-13T10:42:45.069Z,10.12
2023-01-13T10:45:11.518Z,10.23
2023-01-13T10:47:40.128Z,10.32
2023-01-13T10:50:09.408Z,10.31
2023-01-13T10:52:36.082Z,10.32
2023-01-13T10:55:02.545Z,10.30
2023-01-13T10:57:28.992Z,10.37
2023-01-13T10:59:56.515Z,10.42
2023-01-13T11:02:26.225Z,10.48
2023-01-13T11:04:53.299Z,10.56
2023-01-13T11:07:19.790Z,10.61
2023-01-13T11:09:46.200Z,10.47
2023-01-13T11:12:12.703Z,10.58
2023-01-13T11:14:39.187Z,10.59
2023-01-13T11:17:05.584Z,10.63
2023-01-13T11:19:31.946Z,10.62
2023-01-13T11:21:59.363Z,10.67
2023-01-13T11:24:26.006Z,10.69
2023-01-13T11:26:52.461Z,10.67
2023-01-13T11:29:18.829Z,10.54
2023-01-13T11:31:45.271Z,10.51
2023-01-13T11:34:11.689Z,10.55
2023-01-13T11:36:38.088Z,10.53
2023-01-13T11:39:04.494Z,10.49
2023-01-13T11:41:30.922Z,10.51
2023-01-13T11:43:57.308Z,10.53
2023-01-13T11:46:23.751Z,10.60
2023-01-13T11:48:50.126Z,10.67
2023-01-13T11:51:16.574Z,10.74
2023-01-13T11:53:42.979Z,10.59
2023-01-13T11:56:09.410Z,10.70
2023-01-13T11:58:45.650Z,10.77
2023-01-13T12:01:16.553Z,10.66
2023-01-13T12:03:44.071Z,10.77
2023-01-13T12:06:10.493Z,10.82
2023-01-13T12:08:45.811Z,10.85
2023-01-13T12:11:12.234Z,10.94
2023-01-13T12:13:38.604Z,11.03
2023-01-13T12:16:06.439Z,10.99
2023-01-13T12:18:32.911Z,10.98
2023-01-13T12:20:59.313Z,11.05
2023-01-13T12:23:25.829Z,11.09
2023-01-13T12:25:52.268Z,11.08
2023-01-13T12:28:23.127Z,10.96
2023-01-13T12:30:49.538Z,10.90
2023-01-13T12:33:18.653Z,10.89
2023-01-13T12:35:46.293Z,10.66
2023-01-13T12:38:12.679Z,10.75
2023-01-13T12:40:39.089Z,10.73
2023-01-13T12:43:05.543Z,10.64
2023-01-13T12:45:31.972Z,10.50
2023-01-13T12:47:58.444Z,10.44
2023-01-13T12:50:24.916Z,10.43
2023-01-13T12:52:51.339Z,10.42
2023-01-13T12:55:17.872Z,10.54
2023-01-13T12:57:44.358Z,10.62
2023-01-13T13:00:10.839Z,10.71
2023-01-13T13:02:37.300Z,10.83
2023-01-13T13:05:10.976Z,10.94
2023-01-13T13:07:37.410Z,11.00
2023-01-13T13:10:03.879Z,10.85
2023-01-13T13:12:30.259Z,10.98
2023-01-13T13:14:56.774Z,11.07
2023-01-13T13:17:23.236Z,11.06
2023-01-13T13:19:51.821Z,11.14
2023-01-13T13:22:18.235Z,11.17
2023-01-13T13:24:44.733Z,11.03
2023-01-13T13:27:11.162Z,10.96
2023-01-13T13:29:37.617Z,11.01
2023-01-13T13:32:04.043Z,11.08
2023-01-13T13:34:30.506Z,11.09
2023-01-13T13:36:56.910Z,11.01
2023-01-13T13:39:23.400Z,11.07
2023-01-13T13:41:49.876Z,11.10
2023-01-13T13:44:16.260Z,11.02
2023-01-13T13:46:42.643Z,10.95
2023-01-13T13:49:09.063Z,10.98
2023-01-13T13:51:35.506Z,11.00
2023-01-13T13:54:01.882Z,11.18
2023-01-13T13:56:28.296Z,11.28
2023-01-13T13:58:54.799Z,11.39
2023-01-13T14:01:21.293Z,11.42
2023-01-13T14:03:47.727Z,11.55
2023-01-13T14:06:14.146Z,11.60
2023-01-13T14:08:40.439Z,11.66
2023-01-13T14:11:06.929Z,11.69
2023-01-13T14:13:33.346Z,11.74
2023-01-13T14:15:59.745Z,11.77
2023-01-13T14:18:26.166Z,11.69
2023-01-13T14:20:52.624Z,11.56
2023-01-13T14:23:18.975Z,11.50
2023-01-13T14:25:45.358Z,11.43
2023-01-13T14:28:11.740Z,11.36
2023-01-13T14:30:38.077Z,11.42
2023-01-13T14:33:04.413Z,11.08
2023-01-13T14:35:32.447Z,10.94
2023-01-13T14:37:58.787Z,10.78
2023-01-13T14:40:25.230Z,10.93
2023-01-13T14:42:51.637Z,10.78
2023-01-13T14:45:17.977Z,10.88
2023-01-13T14:47:44.318Z,10.75
2023-01-13T14:50:11.704Z,10.86
2023-01-13T14:52:38.138Z,10.95
2023-01-13T14:55:04.467Z,11.11
2023-01-13T14:57:30.864Z,11.18
2023-01-13T14:59:57.229Z,11.23
2023-01-13T15:02:23.689Z,11.26
2023-01-13T15:04:50.128Z,11.31
2023-01-13T15:07:16.497Z,11.33
2023-01-13T15:09:42.927Z,11.36
2023-01-13T15:12:09.369Z,11.31
2023-01-13T15:14:38.756Z,11.23
2023-01-13T15:17:07.912Z,11.36
2023-01-13T15:19:34.326Z,11.37
2023-01-13T15:22:00.692Z,11.41
2023-01-13T15:24:27.122Z,11.35
2023-01-13T15:26:53.566Z,11.34
2023-01-13T15:29:24.364Z,11.33
2023-01-13T15:31:50.871Z,11.38
2023-01-13T15:34:17.258Z,11.41
2023-01-13T15:36:43.597Z,11.42
2023-01-13T15:39:10.571Z,11.45
2023-01-13T15:41:36.970Z,11.45
2023-01-13T15:44:04.684Z,11.46
2023-01-13T15:46:34.123Z,11.48
2023-01-13T15:49:08.055Z,11.44
2023-01-13T15:51:34.482Z,11.46
2023-01-13T15:54:00.943Z,11.41
2023-01-13T15:56:27.348Z,11.44
2023-01-13T15:58:54.124Z,11.42
2023-01-13T16:01:20.672Z,11.40
2023-01-13T16:03:48.158Z,11.38
2023-01-13T16:06:14.556Z,11.37
2023-01-13T16:08:41.998Z,11.34
2023-01-13T16:11:12.492Z,11.31
2023-01-13T16:13:38.923Z,11.28
2023-01-13T16:16:10.237Z,11.28
2023-01-13T16:18:36.784Z,11.12
2023-01-13T16:21:04.264Z,10.74
2023-01-13T16:23:30.680Z,10.78
2023-01-13T16:25:57.181Z,10.63
2023-01-13T16:28:26.074Z,10.59
2023-01-13T16:30:56.936Z,10.51
2023-01-13T16:33:23.470Z,10.57
2023-01-13T16:36:10.543Z,10.62
2023-01-13T16:38:42.919Z,10.65
2023-01-13T16:41:09.412Z,10.68
2023-01-13T16:43:37.283Z,10.65
2023-01-13T16:46:03.864Z,10.70
2023-01-13T16:48:32.525Z,10.70
2023-01-13T16:50:58.883Z,10.63
2023-01-13T16:53:25.512Z,10.76
2023-01-13T16:55:51.927Z,10.75
2023-01-13T16:58:28.729Z,10.78
2023-01-13T17:00:55.236Z,10.88
2023-01-13T17:03:21.925Z,10.98
2023-01-13T17:05:48.344Z,10.99
2023-01-13T17:08:14.784Z,10.96
2023-01-13T17:10:48.598Z,11.03
2023-01-13T17:13:21.637Z,11.10
2023-01-13T17:15:51.377Z,11.14
2023-01-13T17:18:18.141Z,11.15
2023-01-13T17:20:55.165Z,11.17
2023-01-13T17:23:31.386Z,11.20
2023-01-13T17:25:57.766Z,11.23
2023-01-13T17:28:24.239Z,11.16
2023-01-13T17:30:50.659Z,11.04
2023-01-13T17:33:17.189Z,10.84
2023-01-13T17:35:43.644Z,10.74
2023-01-13T17:38:12.879Z,10.77
2023-01-13T17:40:39.277Z,10.33
2023-01-13T17:43:05.615Z,10.36
2023-01-13T17:45:32.057Z,10.49
2023-01-13T17:47:58.463Z,10.33
2023-01-13T17:50:24.870Z,10.28
2023-01-13T17:52:51.344Z,10.21
2023-01-13T17:55:17.709Z,10.00
2023-01-13T17:57:44.096Z,10.05
2023-01-13T18:00:10.536Z,9.91
2023-01-13T18:02:37.120Z,9.89
2023-01-13T18:05:03.569Z,10.01
2023-01-13T18:07:30.021Z,10.14
2023-01-13T18:09:56.434Z,10.22
2023-01-13T18:12:22.793Z,9.99
2023-01-13T18:14:49.194Z,10.06
2023-01-13T18:17:18.696Z,9.88
2023-01-13T18:19:55.479Z,9.95
2023-01-13T18:22:25.003Z,9.93
2023-01-13T18:24:51.377Z,10.00
2023-01-13T18:27:17.797Z,10.25
2023-01-13T18:29:44.159Z,10.33
2023-01-13T18:32:10.624Z,10.27
2023-01-13T18:34:37.014Z,10.31
2023-01-13T18:37:03.503Z,10.25
2023-01-13T18:39:31.155Z,10.23
2023-01-13T18:41:57.535Z,10.18
2023-01-13T18:44:24.116Z,10.27
2023-01-13T18:46:50.552Z,10.50
2023-01-13T18:49:16.947Z,10.62
2023-01-13T18:51:43.395Z,10.51
2023-01-13T18:54:09.763Z,10.38
2023-01-13T18:56:36.100Z,10.60
2023-01-13T18:59:02.521Z,10.63
2023-01-13T19:01:29.027Z,10.81
2023-01-13T19:03:57.765Z,10.84
2023-01-13T19:06:24.208Z,10.90
2023-01-13T19:08:50.605Z,10.89
2023-01-13T19:11:16.958Z,10.92
2023-01-13T19:13:43.331Z,10.93
2023-01-13T19:16:09.756Z,10.94
2023-01-13T19:18:36.124Z,10.84
2023-01-13T19:21:02.574Z,10.95
2023-01-13T19:23:28.923Z,11.01
2023-01-13T19:25:55.283Z,10.83
2023-01-13T19:28:21.699Z,10.96
2023-01-13T19:30:51.959Z,10.90
2023-01-13T19:33:18.356Z,11.00
2023-01-13T19:35:44.773Z,11.10
2023-01-13T19:38:11.119Z,10.96
2023-01-13T19:40:37.528Z,11.12
2023-01-13T19:43:03.909Z,11.13
2023-01-13T19:45:30.292Z,11.13
2023-01-13T19:47:56.728Z,11.15
2023-01-13T19:50:23.157Z,11.17
2023-01-13T19:52:49.548Z,10.90
2023-01-13T19:55:15.947Z,10.82
2023-01-13T19:57:42.265Z,10.83
2023-01-13T20:00:08.688Z,10.99
2023-01-13T20:02:35.110Z,11.11
2023-01-13T20:05:01.541Z,11.05
2023-01-13T20:07:27.878Z,10.85
2023-01-13T20:09:55.317Z,10.62
2023-01-13T20:12:22.914Z,10.68
2023-01-13T20:14:49.865Z,10.67
2023-01-13T20:17:17.637Z,10.44
2023-01-13T20:19:44.088Z,10.47
2023-01-13T20:22:10.522Z,10.40
2023-01-13T20:24:36.918Z,10.07
2023-01-13T20:27:03.409Z,9.91
2023-01-13T20:29:29.788Z,10.22
2023-01-13T20:31:56.217Z,10.10
2023-01-13T20:34:22.748Z,10.21
2023-01-13T20:36:49.125Z,10.27
2023-01-13T20:39:15.574Z,10.38
2023-01-13T20:41:45.061Z,10.33
2023-01-13T20:44:11.431Z,10.44
2023-01-13T20:46:37.827Z,10.49
2023-01-13T20:49:04.242Z,10.52
2023-01-13T20:51:30.666Z,10.62
2023-01-13T20:53:57.117Z,10.64
2023-01-13T20:56:23.562Z,10.75
2023-01-13T20:58:50.053Z,10.71
2023-01-13T21:01:16.507Z,10.83
2023-01-13T21:03:43.132Z,10.83
2023-01-13T21:06:09.719Z,10.91
2023-01-13T21:08:36.183Z,10.93
2023-01-13T21:11:04.268Z,10.92
2023-01-13T21:13:30.759Z,10.96
2023-01-13T21:15:57.170Z,10.99
2023-01-13T21:18:25.734Z,10.99
2023-01-13T21:20:52.065Z,10.75
2023-01-13T21:23:18.462Z,10.91
2023-01-13T21:25:44.836Z,11.01
2023-01-13T21:28:11.471Z,11.09
2023-01-13T21:30:37.899Z,11.11
2023-01-13T21:33:06.819Z,11.04
2023-01-13T21:35:34.596Z,10.98
2023-01-13T21:38:03.924Z,10.78
2023-01-13T21:40:30.350Z,10.95
2023-01-13T21:42:56.746Z,10.93
2023-01-13T21:45:24.655Z,10.94
2023-01-13T21:47:51.031Z,10.75
2023-01-13T21:50:17.402Z,10.91
2023-01-13T21:52:43.853Z,10.80
2023-01-13T21:55:10.206Z,10.58
2023-01-13T21:57:38.742Z,10.77
2023-01-13T22:00:05.124Z,10.90
2023-01-13T22:02:38.018Z,10.90
2023-01-13T22:05:04.511Z,10.85
2023-01-13T22:07:33.254Z,10.87
2023-01-13T22:09:59.625Z,10.94
2023-01-13T22:12:26.105Z,10.95
2023-01-13T22:14:52.495Z,11.04
2023-01-13T22:17:18.930Z,11.07
2023-01-13T22:19:46.784Z,10.76
2023-01-13T22:22:14.144Z,10.85
2023-01-13T22:24:40.627Z,10.80
2023-01-13T22:27:07.028Z,10.58
2023-01-13T22:29:33.410Z,10.47
2023-01-13T22:31:59.880Z,10.55
2023-01-13T22:34:26.259Z,10.63
2023-01-13T22:36:52.641Z,10.71
2023-01-13T22:39:19.015Z,10.76
2023-01-13T22:41:45.395Z,10.73
2023-01-13T22:44:11.780Z,10.78
2023-01-13T22:46:40.477Z,10.78
2023-01-13T22:49:06.868Z,10.74
2023-01-13T22:51:34.261Z,10.71
2023-01-13T22:54:00.674Z,10.62
2023-01-13T22:56:27.238Z,10.62
2023-01-13T22:58:54.893Z,10.27
2023-01-13T23:01:21.354Z,10.46
2023-01-13T23:03:47.932Z,10.60
2023-01-13T23:06:14.527Z,10.68
2023-01-13T23:08:40.974Z,10.72
2023-01-13T23:11:07.372Z,10.74
2023-01-13T23:13:33.765Z,10.73
2023-01-13T23:16:00.118Z,10.65
2023-01-13T23:18:27.913Z,10.66
2023-01-13T23:20:54.346Z,10.66
2023-01-13T23:23:20.684Z,10.63
2023-01-13T23:25:47.054Z,10.61
2023-01-13T23:28:13.520Z,10.54
2023-01-13T23:30:39.900Z,10.58
2023-01-13T23:33:06.386Z,10.61
2023-01-13T23:35:33.838Z,10.62
2023-01-13T23:38:00.289Z,10.59
2023-01-13T23:40:26.705Z,10.44
2023-01-13T23:42:53.090Z,10.45
2023-01-13T23:45:19.482Z,10.44
2023-01-13T23:47:45.861Z,10.45
2023-01-13T23:50:12.256Z,10.44
2023-01-13T23:52:38.672Z,10.43
2023-01-13T23:55:05.086Z,10.34
2023-01-13T23:57:31.460Z,10.32
2023-01-13T23:59:57.850Z,10.30
